Time;durP1;ratioP1;P1;durP2;ratioP2;P2;SDS_P1;SDS_P2;PMS_P1;PMS_P2;Temp;Humidity;BMP_temperature;BMP_pressure;BME280_temperature;BME280_humidity;BME280_pressure;Samples;Min_cycle;Max_cycle;Signal;HPM_P1;HPM_P2
2023/06/12 00:02:04;;;;;;;3.37;2.33;;;8.90;95.30;;;;;;8263878;28;20204;-66
2023/06/12 00:06:05;;;;;;;3.67;2.80;;;8.80;91.80;;;;;;8253647;28;20219;-67
2023/06/12 00:10:10;;;;;;;3.00;2.70;;;8.80;99.10;;;;;;8264270;28;20231;-67
2023/06/12 00:14:11;;;;;;;2.77;2.10;;;8.70;99.90;;;;;;8267456;28;20180;-67
2023/06/12 00:18:12;;;;;;;2.73;2.10;;;8.70;99.90;;;;;;8263986;28;20198;-65
2023/06/12 00:22:13;;;;;;;3.30;2.30;;;8.70;99.90;;;;;;8253391;28;20192;-66
2023/06/12 00:26:13;;;;;;;3.70;2.50;;;8.60;99.90;;;;;;8268140;28;20269;-66
2023/06/12 00:30:15;;;;;;;3.77;2.03;;;8.60;99.90;;;;;;8268683;28;20218;-66
2023/06/12 00:34:19;;;;;;;2.37;2.13;;;8.50;99.90;;;;;;8256187;28;20191;-67
2023/06/12 00:38:21;;;;;;;2.80;2.37;;;8.40;99.90;;;;;;8270410;28;20207;-67
2023/06/12 00:42:22;;;;;;;3.10;2.80;;;8.40;99.90;;;;;;8262133;28;20205;-67
2023/06/12 00:46:23;;;;;;;2.43;2.00;;;8.30;99.90;;;;;;8275225;28;20190;-65
2023/06/12 00:50:27;;;;;;;2.57;1.97;;;8.20;99.90;;;;;;8257222;28;20305;-67
2023/06/12 00:54:29;;;;;;;2.93;2.37;;;8.10;99.90;;;;;;8272476;28;20203;-67
2023/06/12 00:58:30;;;;;;;2.73;2.07;;;8.00;99.90;;;;;;8271589;28;20208;-67
2023/06/12 01:02:32;;;;;;;2.70;2.20;;;8.00;99.90;;;;;;8285617;28;20213;-69
2023/06/12 01:06:50;;;;;;;3.00;2.47;;;8.00;99.90;;;;;;8287240;28;20266;-68
2023/06/12 01:10:51;;;;;;;3.17;2.27;;;7.90;99.90;;;;;;8272365;28;20248;-71
2023/06/12 01:14:52;;;;;;;3.67;2.50;;;7.90;99.90;;;;;;8265997;28;20213;-68
2023/06/12 01:18:55;;;;;;;2.13;1.93;;;7.80;99.90;;;;;;8258251;28;20210;-67
2023/06/12 01:23:20;;;;;;;2.97;2.23;;;7.80;99.90;;;;;;8253419;28;20199;-67
2023/06/12 01:27:43;;;;;;;2.77;2.10;;;7.70;99.90;;;;;;8287253;28;20198;-67
2023/06/12 01:32:12;;;;;;;2.57;2.10;;;7.70;99.90;;;;;;8273805;28;20194;-67
2023/06/12 01:36:19;;;;;;;2.60;2.10;;;7.70;99.90;;;;;;8268367;28;20188;-68
2023/06/12 01:40:22;;;;;;;2.23;1.97;;;7.60;99.90;;;;;;8270145;28;20230;-66
2023/06/12 01:44:23;;;;;;;3.63;2.27;;;7.60;99.90;;;;;;8250295;28;20190;-67
2023/06/12 01:48:24;;;;;;;3.03;2.30;;;7.50;99.90;;;;;;8255376;28;20198;-67
2023/06/12 01:52:26;;;;;;;3.27;2.50;;;7.50;99.90;;;;;;8266479;28;20301;-67
2023/06/12 01:56:27;;;;;;;3.50;2.43;;;7.50;99.90;;;;;;8272607;28;20217;-66
2023/06/12 02:00:28;;;;;;;3.23;2.60;;;7.50;99.90;;;;;;8261197;28;20235;-68
2023/06/12 02:04:31;;;;;;;3.50;2.33;;;7.50;99.90;;;;;;8253952;28;20256;-67
2023/06/12 02:08:32;;;;;;;3.43;2.77;;;7.40;99.90;;;;;;8281952;28;20206;-67
2023/06/12 02:12:33;;;;;;;3.33;2.27;;;7.40;99.90;;;;;;8273139;28;20183;-69
2023/06/12 02:16:34;;;;;;;3.77;2.20;;;7.40;99.90;;;;;;8276561;28;20198;-68
2023/06/12 02:20:36;;;;;;;3.17;2.27;;;7.40;99.90;;;;;;8256137;28;20218;-68
2023/06/12 02:24:37;;;;;;;2.83;2.23;;;7.30;99.90;;;;;;8266572;28;20210;-70
2023/06/12 02:28:42;;;;;;;2.93;2.37;;;7.30;99.90;;;;;;8264180;28;20270;-73
2023/06/12 02:32:43;;;;;;;3.23;2.63;;;7.30;99.90;;;;;;8267921;28;20203;-68
2023/06/12 02:36:46;;;;;;;3.40;2.30;;;7.30;99.90;;;;;;8281849;28;20356;-73
2023/06/12 02:40:47;;;;;;;2.83;2.17;;;7.30;99.90;;;;;;8258702;28;20245;-70
2023/06/12 02:44:48;;;;;;;3.43;2.30;;;7.30;99.90;;;;;;8267166;28;20189;-68
2023/06/12 02:48:49;;;;;;;4.50;2.37;;;7.30;99.90;;;;;;8266081;28;20189;-68
2023/06/12 02:52:50;;;;;;;3.30;2.30;;;7.30;99.90;;;;;;8266980;28;20218;-67
2023/06/12 02:56:52;;;;;;;4.47;2.67;;;7.30;99.90;;;;;;8250560;28;20198;-67
2023/06/12 03:00:52;;;;;;;3.70;2.63;;;7.40;99.90;;;;;;8253236;28;20233;-69
2023/06/12 03:04:54;;;;;;;4.00;2.23;;;7.60;99.90;;;;;;8265565;28;20222;-69
2023/06/12 03:08:55;;;;;;;4.67;2.77;;;7.80;99.90;;;;;;8271289;28;20274;-69
2023/06/12 03:12:56;;;;;;;2.93;2.63;;;8.10;99.90;;;;;;8266155;28;20194;-69
2023/06/12 03:16:57;;;;;;;5.83;2.43;;;8.60;99.90;;;;;;8253598;28;20195;-69
2023/06/12 03:21:02;;;;;;;3.27;2.30;;;9.30;99.90;;;;;;8281639;28;20215;-69
2023/06/12 03:25:03;;;;;;;3.43;2.37;;;10.10;99.90;;;;;;8255455;28;20195;-69
2023/06/12 03:29:04;;;;;;;3.47;2.50;;;11.00;80.70;;;;;;8250754;28;20287;-70
2023/06/12 03:33:05;;;;;;;3.73;2.60;;;11.90;1.00;;;;;;8269876;28;20455;-69
2023/06/12 03:37:10;;;;;;;3.10;2.43;;;12.70;1.00;;;;;;8250978;28;20224;-69
2023/06/12 03:41:13;;;;;;;4.97;2.30;;;13.50;1.00;;;;;;8280052;28;20218;-70
2023/06/12 03:45:14;;;;;;;3.23;2.70;;;13.70;1.00;;;;;;8279966;28;20194;-70
2023/06/12 03:49:15;;;;;;;2.60;2.03;;;13.70;1.00;;;;;;8266731;28;20248;-69
2023/06/12 03:53:16;;;;;;;3.43;2.70;;;14.20;1.00;;;;;;8254242;28;20262;-70
2023/06/12 03:57:20;;;;;;;3.03;2.37;;;14.90;1.00;;;;;;8253038;28;20195;-70
2023/06/12 04:01:20;;;;;;;2.90;2.10;;;15.80;1.00;;;;;;8265227;28;20222;-69
2023/06/12 04:05:21;;;;;;;5.03;3.13;;;16.80;1.00;;;;;;8282401;28;20246;-69
2023/06/12 04:09:22;;;;;;;2.40;2.20;;;17.70;1.00;;;;;;8272717;28;20222;-69
2023/06/12 04:13:23;;;;;;;4.27;3.00;;;18.40;1.00;;;;;;8255262;28;20199;-69
2023/06/12 04:17:24;;;;;;;5.10;2.33;;;19.00;1.00;;;;;;8262090;28;20282;-68
2023/06/12 04:21:26;;;;;;;3.00;2.70;;;19.80;1.00;;;;;;8270650;28;20211;-68
2023/06/12 04:25:27;;;;;;;5.10;2.80;;;20.60;1.00;;;;;;8259173;28;20222;-70
2023/06/12 04:29:29;;;;;;;4.33;3.10;;;20.90;1.00;;;;;;8270628;28;20269;-72
2023/06/12 04:33:32;;;;;;;4.07;2.87;;;20.70;1.00;;;;;;8277594;28;20327;-71
2023/06/12 04:37:32;;;;;;;5.97;3.57;;;19.90;1.00;;;;;;8262885;28;20281;-65
2023/06/12 04:41:36;;;;;;;4.50;3.27;;;19.00;1.00;;;;;;8271903;28;20301;-67
2023/06/12 04:45:37;;;;;;;4.60;3.30;;;18.40;1.00;;;;;;8272462;28;20192;-67
2023/06/12 04:49:41;;;;;;;4.40;3.60;;;18.00;1.00;;;;;;8276757;28;20283;-66
2023/06/12 04:53:43;;;;;;;9.10;3.93;;;17.60;1.00;;;;;;8283138;28;20192;-67
2023/06/12 04:57:45;;;;;;;4.73;3.70;;;17.30;1.00;;;;;;8285746;28;20251;-68
2023/06/12 05:01:49;;;;;;;6.63;3.93;;;16.90;1.00;;;;;;8271035;28;20284;-68
2023/06/12 05:05:49;;;;;;;4.73;4.10;;;16.30;1.00;;;;;;8255161;28;20246;-69
2023/06/12 05:09:50;;;;;;;8.80;4.07;;;16.20;1.00;;;;;;8254478;28;20192;-67
2023/06/12 05:13:51;;;;;;;4.87;3.90;;;16.00;1.00;;;;;;8271610;28;20282;-68
2023/06/12 05:17:52;;;;;;;7.20;4.10;;;15.90;1.00;;;;;;8253579;28;20291;-68
2023/06/12 05:21:53;;;;;;;6.50;4.20;;;15.80;1.00;;;;;;8255232;28;20251;-68
2023/06/12 05:25:54;;;;;;;6.40;4.47;;;16.00;1.00;;;;;;8268980;28;20262;-68
2023/06/12 05:29:59;;;;;;;5.93;3.70;;;16.10;1.00;;;;;;8268407;28;20283;-67
2023/06/12 05:34:00;;;;;;;6.30;3.73;;;16.30;1.00;;;;;;8271864;28;20279;-68
2023/06/12 05:38:01;;;;;;;5.83;4.60;;;16.70;1.00;;;;;;8255215;28;20196;-68
2023/06/12 05:42:02;;;;;;;5.57;4.23;;;17.10;1.00;;;;;;8256979;28;20231;-70
2023/06/12 05:46:07;;;;;;;4.70;3.97;;;17.50;1.00;;;;;;8256043;28;20320;-66
2023/06/12 05:50:08;;;;;;;5.20;4.10;;;17.90;1.00;;;;;;8270161;28;20192;-68
2023/06/12 05:54:09;;;;;;;8.70;5.23;;;18.40;1.00;;;;;;8257913;28;20219;-71
2023/06/12 05:58:10;;;;;;;4.50;4.10;;;18.70;1.00;;;;;;8258228;28;20191;-70
2023/06/12 06:02:11;;;;;;;7.30;4.23;;;18.90;1.00;;;;;;8268928;28;20195;-66
2023/06/12 06:06:18;;;;;;;5.90;4.70;;;19.10;1.00;;;;;;8249124;28;20215;-69
2023/06/12 06:10:19;;;;;;;6.10;4.93;;;19.30;1.00;;;;;;8257540;28;20192;-68
2023/06/12 06:14:21;;;;;;;7.23;4.13;;;19.30;1.00;;;;;;8254593;28;20211;-70
2023/06/12 06:18:25;;;;;;;7.93;4.90;;;19.20;1.00;;;;;;8265960;28;20196;-70
2023/06/12 06:22:26;;;;;;;7.40;4.23;;;19.40;1.00;;;;;;8264657;28;20191;-70
2023/06/12 06:26:28;;;;;;;6.57;4.17;;;19.60;1.00;;;;;;8268677;28;20254;-68
2023/06/12 06:30:29;;;;;;;4.90;3.67;;;20.10;1.00;;;;;;8270301;28;20223;-70
2023/06/12 06:34:30;;;;;;;4.63;3.53;;;20.10;1.00;;;;;;8255104;28;20219;-70
2023/06/12 06:38:31;;;;;;;4.67;3.47;;;20.50;1.00;;;;;;8260182;28;20210;-67
2023/06/12 06:42:32;;;;;;;7.13;3.53;;;20.70;1.00;;;;;;8265421;28;20191;-68
2023/06/12 06:46:33;;;;;;;4.07;3.53;;;20.90;1.00;;;;;;8260348;28;20261;-71
2023/06/12 06:50:34;;;;;;;5.30;3.90;;;21.30;1.00;;;;;;8252814;28;20199;-70
2023/06/12 06:54:35;;;;;;;7.40;3.90;;;21.60;1.00;;;;;;8285558;28;20191;-71
2023/06/12 06:58:35;;;;;;;4.30;3.10;;;21.60;1.00;;;;;;8250537;28;20215;-71
2023/06/12 07:02:38;;;;;;;6.13;3.57;;;21.50;1.00;;;;;;8264538;28;20211;-71
2023/06/12 07:06:39;;;;;;;3.80;2.83;;;21.70;1.00;;;;;;8253938;28;20206;-68
2023/06/12 07:10:40;;;;;;;3.27;2.60;;;21.60;1.00;;;;;;8258959;28;20229;-71
2023/06/12 07:14:41;;;;;;;5.40;3.17;;;21.70;1.00;;;;;;8252172;28;20312;-66
2023/06/12 07:18:45;;;;;;;4.30;3.00;;;21.50;1.00;;;;;;8255339;28;20299;-70
2023/06/12 07:22:46;;;;;;;5.63;3.03;;;21.60;1.00;;;;;;8249183;28;20187;-68
2023/06/12 07:26:47;;;;;;;4.40;2.83;;;21.70;1.00;;;;;;8269296;28;20190;-69
2023/06/12 07:30:48;;;;;;;4.60;2.90;;;21.60;1.00;;;;;;8267087;28;20198;-71
2023/06/12 07:34:51;;;;;;;3.37;2.67;;;21.70;1.00;;;;;;8252814;28;20195;-70
2023/06/12 07:38:52;;;;;;;4.90;2.70;;;21.80;1.00;;;;;;8282775;28;20219;-69
2023/06/12 07:42:54;;;;;;;3.77;2.90;;;21.70;1.00;;;;;;8261366;28;20190;-70
2023/06/12 07:46:58;;;;;;;3.77;2.57;;;21.60;1.00;;;;;;8258519;28;20259;-68
2023/06/12 07:50:59;;;;;;;5.63;2.83;;;21.80;1.00;;;;;;8259880;28;20191;-67
2023/06/12 07:55:01;;;;;;;3.03;2.63;;;21.60;1.00;;;;;;8270397;28;20191;-68
2023/06/12 07:59:09;;;;;;;5.07;2.50;;;21.60;1.00;;;;;;8256904;28;20299;-68
2023/06/12 08:03:10;;;;;;;3.43;2.63;;;21.70;1.00;;;;;;8271252;28;20222;-71
2023/06/12 08:07:15;;;;;;;4.13;2.93;;;22.00;1.00;;;;;;8271879;28;20215;-69
2023/06/12 08:11:17;;;;;;;4.43;2.93;;;22.00;1.00;;;;;;8261071;28;20395;-70
2023/06/12 08:15:19;;;;;;;4.00;2.90;;;22.10;1.00;;;;;;8256789;28;20190;-68
2023/06/12 08:19:20;;;;;;;3.50;2.37;;;22.40;1.00;;;;;;8270280;28;20207;-69
2023/06/12 08:23:21;;;;;;;4.10;2.93;;;22.40;1.00;;;;;;8273507;28;20195;-70
2023/06/12 08:27:28;;;;;;;2.47;2.23;;;22.30;99.90;;;;;;8275272;28;20278;-70
2023/06/12 08:31:33;;;;;;;3.83;3.00;;;22.50;1.00;;;;;;8262361;28;20188;-70
2023/06/12 08:35:36;;;;;;;5.33;2.57;;;22.90;99.90;;;;;;8272019;28;20183;-69
2023/06/12 08:39:37;;;;;;;3.37;2.63;;;22.90;99.90;;;;;;8285555;28;20216;-70
2023/06/12 08:43:39;;;;;;;7.50;2.93;;;23.00;99.90;;;;;;8258613;28;20184;-69
2023/06/12 08:47:42;;;;;;;3.20;2.60;;;23.00;99.90;;;;;;8267971;28;20256;-69
2023/06/12 08:51:44;;;;;;;4.57;2.30;;;23.10;99.90;;;;;;8274849;28;20188;-68
2023/06/12 08:55:45;;;;;;;3.30;2.47;;;23.20;99.90;;;;;;8255656;28;20198;-69
2023/06/12 08:59:46;;;;;;;3.30;2.50;;;23.30;99.90;;;;;;8268992;28;20230;-70
2023/06/12 09:03:51;;;;;;;5.63;2.70;;;23.30;99.90;;;;;;8255366;28;20210;-69
2023/06/12 09:07:53;;;;;;;4.97;2.40;;;23.50;99.90;;;;;;8259779;28;20298;-69
2023/06/12 09:11:54;;;;;;;5.27;2.60;;;23.70;99.90;;;;;;8268863;28;20208;-68
2023/06/12 09:15:55;;;;;;;3.23;2.40;;;23.40;99.90;;;;;;8274760;28;20277;-70
2023/06/12 09:19:57;;;;;;;5.13;2.57;;;23.10;99.90;;;;;;8270859;28;20239;-69
2023/06/12 09:23:58;;;;;;;7.10;2.57;;;22.90;99.90;;;;;;8257365;28;20192;-70
2023/06/12 09:28:00;;;;;;;4.90;2.50;;;22.80;99.90;;;;;;8272019;28;20187;-71
2023/06/12 09:32:11;;;;;;;4.30;2.30;;;23.00;99.90;;;;;;8287331;28;20293;-71
2023/06/12 09:36:13;;;;;;;3.47;2.20;;;23.10;99.90;;;;;;8257611;28;20191;-71
2023/06/12 09:40:15;;;;;;;4.43;2.33;;;23.10;99.90;;;;;;8258994;28;20226;-71
2023/06/12 09:44:28;;;;;;;5.43;2.20;;;22.90;99.90;;;;;;8272067;28;20188;-70
2023/06/12 09:48:37;;;;;;;3.97;2.30;;;22.90;99.90;;;;;;8268509;28;20184;-72
2023/06/12 09:52:40;;;;;;;5.17;2.40;;;22.80;99.90;;;;;;8262000;28;20183;-72
2023/06/12 09:56:46;;;;;;;3.70;2.60;;;22.80;99.90;;;;;;8274090;28;20210;-70
2023/06/12 10:00:47;;;;;;;4.20;2.30;;;23.00;99.90;;;;;;8249589;28;20222;-69
2023/06/12 10:05:03;;;;;;;3.67;2.20;;;22.90;99.90;;;;;;8256448;28;20249;-71
2023/06/12 10:09:08;;;;;;;5.73;1.93;;;23.10;99.90;;;;;;8270414;28;20188;-72
2023/06/12 10:13:10;;;;;;;3.47;2.03;;;23.40;99.90;;;;;;8271922;28;20183;-70
2023/06/12 10:17:13;;;;;;;2.37;2.17;;;23.40;99.90;;;;;;8259356;28;20193;-70
2023/06/12 10:21:15;;;;;;;6.33;2.53;;;23.40;99.90;;;;;;8254812;28;20237;-69
2023/06/12 10:25:17;;;;;;;3.90;2.10;;;23.30;99.90;;;;;;8271067;28;20186;-68
2023/06/12 10:29:33;;;;;;;7.17;2.80;;;23.50;99.90;;;;;;8251478;28;20184;-70
2023/06/12 10:33:38;;;;;;;6.73;3.00;;;23.50;99.90;;;;;;8255360;28;20184;-68
2023/06/12 10:37:47;;;;;;;3.57;2.23;;;23.80;99.90;;;;;;8256569;28;20191;-72
2023/06/12 10:41:54;;;;;;;2.77;2.10;;;24.00;99.90;;;;;;8265899;28;20234;-69
2023/06/12 10:45:58;;;;;;;5.33;2.30;;;24.30;99.90;;;;;;8255543;28;20183;-71
2023/06/12 10:50:06;;;;;;;3.13;2.30;;;24.30;99.90;;;;;;8255822;28;20186;-69
2023/06/12 10:54:15;;;;;;;4.77;3.90;;;24.40;99.90;;;;;;8268475;28;20191;-68
2023/06/12 10:58:19;;;;;;;2.80;2.50;;;24.60;99.90;;;;;;8267733;28;20184;-69
2023/06/12 11:02:20;;;;;;;6.10;4.20;;;24.50;99.90;;;;;;8268308;28;20215;-71
2023/06/12 11:06:25;;;;;;;3.37;2.30;;;24.30;99.90;;;;;;8269313;28;20191;-71
2023/06/12 11:10:30;;;;;;;5.30;3.27;;;24.30;99.90;;;;;;8264158;28;20210;-68
2023/06/12 11:14:35;;;;;;;2.90;1.90;;;24.40;99.90;;;;;;8268583;28;20183;-71
2023/06/12 11:18:39;;;;;;;4.07;2.03;;;24.50;99.90;;;;;;8268271;28;20194;-68
2023/06/12 11:22:40;;;;;;;2.10;1.90;;;24.60;99.90;;;;;;8256377;28;20219;-72
2023/06/12 11:26:41;;;;;;;3.50;2.03;;;24.60;99.90;;;;;;8269111;28;20180;-70
2023/06/12 11:30:50;;;;;;;5.20;2.10;;;24.50;99.90;;;;;;8266272;28;20247;-72
2023/06/12 11:34:51;;;;;;;3.27;2.43;;;24.40;99.90;;;;;;8261811;28;20216;-69
2023/06/12 11:38:52;;;;;;;3.33;2.23;;;24.20;99.90;;;;;;8265988;28;20211;-69
2023/06/12 11:42:55;;;;;;;2.37;2.17;;;24.00;99.90;;;;;;8267056;28;20188;-68
2023/06/12 11:47:00;;;;;;;4.90;2.40;;;24.00;99.90;;;;;;8252589;28;20194;-70
2023/06/12 11:51:02;;;;;;;3.13;2.37;;;24.10;99.90;;;;;;8249896;28;20183;-70
2023/06/12 11:55:12;;;;;;;4.13;2.20;;;24.30;99.90;;;;;;8268104;28;20183;-69
2023/06/12 11:59:13;;;;;;;4.33;2.07;;;24.50;99.90;;;;;;8266267;28;20210;-68
2023/06/12 12:03:16;;;;;;;4.17;2.10;;;24.40;99.90;;;;;;8283544;28;20204;-70
2023/06/12 12:07:20;;;;;;;3.70;2.17;;;24.10;99.90;;;;;;8246700;28;20207;-71
2023/06/12 12:11:22;;;;;;;3.73;2.00;;;24.00;99.90;;;;;;8253158;28;20191;-68
2023/06/12 12:15:24;;;;;;;4.23;2.23;;;24.30;99.90;;;;;;8256960;28;20347;-65
2023/06/12 12:19:29;;;;;;;3.53;2.03;;;24.60;99.90;;;;;;8266959;28;20289;-69
2023/06/12 12:23:32;;;;;;;3.03;2.20;;;24.70;99.90;;;;;;8262191;28;20187;-70
2023/06/12 12:27:33;;;;;;;2.10;1.87;;;24.90;99.90;;;;;;8262088;28;20210;-70
2023/06/12 12:31:36;;;;;;;2.70;2.20;;;24.60;99.90;;;;;;8267306;28;20305;-70
2023/06/12 12:35:37;;;;;;;2.30;1.90;;;24.70;99.90;;;;;;8254540;28;20207;-68
2023/06/12 12:39:38;;;;;;;4.87;2.10;;;24.70;99.90;;;;;;8269959;28;20247;-67
2023/06/12 12:43:39;;;;;;;2.20;1.87;;;24.70;99.90;;;;;;8260565;28;20187;-69
2023/06/12 12:47:40;;;;;;;4.27;2.27;;;24.80;99.90;;;;;;8258783;28;20191;-71
2023/06/12 12:51:44;;;;;;;3.50;1.80;;;24.90;99.90;;;;;;8256397;28;20266;-69
2023/06/12 12:55:45;;;;;;;2.83;2.23;;;25.00;99.90;;;;;;8267220;28;20274;-70
2023/06/12 12:59:49;;;;;;;3.53;2.43;;;24.80;99.90;;;;;;8272219;28;20293;-71
2023/06/12 13:04:08;;;;;;;2.47;2.27;;;25.10;99.90;;;;;;8256268;28;20239;-71
2023/06/12 13:08:10;;;;;;;3.30;2.20;;;25.20;99.90;;;;;;8270200;28;20199;-67
2023/06/12 13:12:15;;;;;;;4.27;2.30;;;25.00;99.90;;;;;;8262106;28;20188;-71
2023/06/12 13:16:15;;;;;;;5.13;2.60;;;25.20;99.90;;;;;;8285212;28;20191;-71
2023/06/12 13:20:17;;;;;;;5.10;2.10;;;25.40;99.90;;;;;;8257893;28;20214;-71
2023/06/12 13:24:18;;;;;;;9.30;2.57;;;25.70;99.90;;;;;;8260226;28;20201;-71
2023/06/12 13:28:21;;;;;;;3.47;2.20;;;25.80;99.90;;;;;;8258107;28;20191;-71
2023/06/12 13:32:22;;;;;;;2.57;2.20;;;25.90;99.90;;;;;;8257888;28;20259;-71
2023/06/12 13:36:23;;;;;;;3.10;1.90;;;25.70;99.90;;;;;;8259167;28;20207;-70
2023/06/12 13:40:24;;;;;;;5.93;2.17;;;25.40;99.90;;;;;;8273266;28;20210;-69
2023/06/12 13:44:25;;;;;;;4.53;2.17;;;25.30;99.90;;;;;;8264914;28;20191;-72
2023/06/12 13:48:27;;;;;;;2.43;2.23;;;25.50;99.90;;;;;;8256478;28;20194;-70
2023/06/12 13:52:29;;;;;;;5.33;2.10;;;25.70;99.90;;;;;;8256915;28;20206;-68
2023/06/12 13:56:32;;;;;;;6.47;1.90;;;25.80;99.90;;;;;;8274806;28;20195;-69
2023/06/12 14:00:35;;;;;;;3.63;2.20;;;25.70;99.90;;;;;;8267701;28;20226;-69
2023/06/12 14:04:42;;;;;;;2.60;2.33;;;25.50;99.90;;;;;;8254999;28;20208;-70
2023/06/12 14:08:45;;;;;;;4.47;2.60;;;25.50;99.90;;;;;;8256541;28;20194;-68
2023/06/12 14:12:46;;;;;;;4.43;2.40;;;25.60;99.90;;;;;;8252181;28;20206;-71
2023/06/12 14:16:52;;;;;;;3.73;2.10;;;25.70;99.90;;;;;;8266521;28;20203;-70
2023/06/12 14:20:55;;;;;;;4.07;2.47;;;25.80;99.90;;;;;;8255418;28;20249;-70
2023/06/12 14:24:56;;;;;;;4.60;2.53;;;25.50;99.90;;;;;;8273265;28;20237;-69
2023/06/12 14:28:57;;;;;;;3.87;2.40;;;25.40;99.90;;;;;;8258078;28;20191;-69
2023/06/12 14:32:59;;;;;;;4.23;3.00;;;25.60;99.90;;;;;;8269504;28;20194;-72
2023/06/12 14:37:01;;;;;;;5.47;2.70;;;25.60;99.90;;;;;;8287458;28;20280;-72
2023/06/12 14:41:01;;;;;;;6.90;2.13;;;25.80;99.90;;;;;;8272616;28;20214;-68
2023/06/12 14:45:03;;;;;;;3.27;2.40;;;26.10;99.90;;;;;;8253543;28;20250;-71
2023/06/12 14:49:04;;;;;;;7.23;2.20;;;26.10;99.90;;;;;;8264580;28;20214;-68
2023/06/12 14:53:05;;;;;;;4.30;2.07;;;25.90;99.90;;;;;;8269642;28;20187;-70
2023/06/12 14:57:10;;;;;;;3.57;2.30;;;25.50;99.90;;;;;;8255656;28;20280;-68
2023/06/12 15:01:11;;;;;;;12.57;3.10;;;25.10;99.90;;;;;;8254584;28;20333;-70
2023/06/12 15:05:11;;;;;;;5.07;2.30;;;24.90;99.90;;;;;;8266880;28;20276;-69
2023/06/12 15:09:12;;;;;;;3.93;2.40;;;24.80;99.90;;;;;;8255265;28;20328;-73
2023/06/12 15:13:13;;;;;;;4.37;2.17;;;25.00;99.90;;;;;;8267175;28;20195;-68
2023/06/12 15:17:14;;;;;;;4.80;2.23;;;25.40;99.90;;;;;;8253169;28;20253;-71
2023/06/12 15:21:18;;;;;;;4.00;2.40;;;25.50;99.90;;;;;;8268427;28;20221;-69
2023/06/12 15:25:19;;;;;;;4.60;2.00;;;25.60;99.90;;;;;;8251112;28;20187;-71
2023/06/12 15:29:20;;;;;;;6.90;2.20;;;25.60;99.90;;;;;;8250024;28;20199;-69
2023/06/12 15:33:21;;;;;;;3.43;2.20;;;25.70;99.90;;;;;;8266464;28;20183;-67
2023/06/12 15:37:22;;;;;;;2.60;1.87;;;25.50;99.90;;;;;;8283327;28;20186;-68
2023/06/12 15:41:23;;;;;;;4.63;2.17;;;25.20;99.90;;;;;;8264257;28;20211;-67
2023/06/12 15:45:24;;;;;;;6.37;2.27;;;24.80;99.90;;;;;;8255328;28;20213;-68
2023/06/12 15:49:25;;;;;;;2.13;1.93;;;24.80;99.90;;;;;;8260955;28;20195;-68
2023/06/12 15:53:27;;;;;;;4.60;2.37;;;24.90;99.90;;;;;;8267637;28;20192;-68
2023/06/12 15:57:28;;;;;;;2.93;2.00;;;24.90;99.90;;;;;;8265013;28;20196;-70
2023/06/12 16:01:29;;;;;;;5.97;2.40;;;25.00;99.90;;;;;;8255111;28;20218;-71
2023/06/12 16:05:30;;;;;;;6.17;2.03;;;24.90;99.90;;;;;;8288377;28;20215;-68
2023/06/12 16:09:31;;;;;;;4.70;1.87;;;24.80;99.90;;;;;;8259917;28;20333;-70
2023/06/12 16:13:32;;;;;;;5.90;2.47;;;24.70;99.90;;;;;;8271049;28;20179;-71
2023/06/12 16:17:33;;;;;;;3.90;2.20;;;24.70;99.90;;;;;;8258969;28;20187;-70
2023/06/12 16:21:34;;;;;;;5.20;2.40;;;24.80;99.90;;;;;;8252935;28;20280;-70
2023/06/12 16:25:35;;;;;;;4.97;2.83;;;24.90;99.90;;;;;;8259185;28;20206;-70
2023/06/12 16:29:36;;;;;;;3.23;2.80;;;25.00;99.90;;;;;;8257666;28;20198;-70
2023/06/12 16:33:41;;;;;;;3.63;2.13;;;24.90;99.90;;;;;;8271275;28;20289;-71
2023/06/12 16:37:45;;;;;;;2.80;2.20;;;24.80;99.90;;;;;;8259415;28;20198;-71
2023/06/12 16:41:47;;;;;;;3.67;1.83;;;24.90;99.90;;;;;;8255939;28;20254;-72
2023/06/12 16:45:48;;;;;;;2.37;1.80;;;25.00;99.90;;;;;;8271581;28;20270;-67
2023/06/12 16:49:49;;;;;;;9.30;2.57;;;25.10;99.90;;;;;;8256878;28;20199;-70
2023/06/12 16:53:50;;;;;;;6.93;2.77;;;24.90;99.90;;;;;;8256642;28;20259;-70
2023/06/12 16:57:52;;;;;;;7.23;3.77;;;24.60;99.90;;;;;;8258125;28;20195;-69
2023/06/12 17:01:53;;;;;;;4.13;2.37;;;24.50;99.90;;;;;;8274007;28;20211;-70
2023/06/12 17:05:53;;;;;;;10.93;7.90;;;24.30;99.90;;;;;;8256137;28;20321;-70
2023/06/12 17:09:57;;;;;;;9.37;7.40;;;24.20;99.90;;;;;;8277299;28;20273;-71
2023/06/12 17:13:58;;;;;;;5.30;2.60;;;24.20;99.90;;;;;;8271061;28;20191;-70
2023/06/12 17:18:00;;;;;;;5.10;2.20;;;24.80;99.90;;;;;;8256485;28;20227;-69
2023/06/12 17:22:05;;;;;;;4.67;1.87;;;25.60;99.90;;;;;;8284270;28;20222;-74
2023/06/12 17:26:06;;;;;;;4.97;2.40;;;26.30;99.90;;;;;;8272310;28;20227;-70
2023/06/12 17:30:08;;;;;;;6.20;2.40;;;26.80;99.90;;;;;;8254773;28;20238;-70
2023/06/12 17:34:09;;;;;;;4.15;1.90;;;27.30;99.90;;;;;;8270938;28;20280;-71
2023/06/12 17:38:10;;;;;;;6.35;2.08;;;27.80;99.90;;;;;;8273938;28;20191;-71
2023/06/12 17:42:11;;;;;;;4.43;2.03;;;28.20;99.90;;;;;;8254592;28;20245;-70
2023/06/12 17:46:12;;;;;;;5.90;3.92;;;28.50;99.90;;;;;;8272135;28;20274;-70
2023/06/12 17:50:13;;;;;;;7.47;5.00;;;28.40;99.90;;;;;;8281834;28;20213;-68
2023/06/12 17:54:14;;;;;;;5.63;4.03;;;27.40;99.90;;;;;;8269304;28;20201;-69
2023/06/12 17:58:15;;;;;;;6.30;4.93;;;26.50;99.90;;;;;;8277583;28;20192;-69
2023/06/12 18:02:16;;;;;;;5.10;4.20;;;26.10;99.90;;;;;;8270476;28;20218;-69
2023/06/12 18:06:17;;;;;;;4.03;1.83;;;25.60;99.90;;;;;;8283592;28;20206;-68
2023/06/12 18:10:18;;;;;;;4.77;2.57;;;25.30;99.90;;;;;;8269464;28;20191;-68
2023/06/12 18:14:19;;;;;;;3.80;3.10;;;25.70;99.90;;;;;;8255005;28;20195;-68
2023/06/12 18:18:20;;;;;;;5.00;3.23;;;26.50;99.90;;;;;;8266370;28;20192;-68
2023/06/12 18:22:21;;;;;;;4.13;3.23;;;27.20;99.90;;;;;;8267520;28;20230;-68
2023/06/12 18:26:22;;;;;;;3.90;3.38;;;27.60;99.90;;;;;;8269785;28;20194;-69
2023/06/12 18:30:23;;;;;;;10.52;3.13;;;27.70;99.90;;;;;;8253296;28;20191;-69
2023/06/12 18:34:24;;;;;;;3.57;2.13;;;27.70;99.90;;;;;;8264602;28;20246;-68
2023/06/12 18:38:25;;;;;;;2.05;1.70;;;27.40;99.90;;;;;;8267836;28;20201;-68
2023/06/12 18:42:26;;;;;;;1.83;1.37;;;26.80;99.90;;;;;;8268827;28;20313;-67
2023/06/12 18:46:27;;;;;;;3.90;1.73;;;26.00;99.90;;;;;;8265698;28;20195;-68
2023/06/12 18:50:28;;;;;;;3.37;1.70;;;24.80;99.90;;;;;;8269314;28;20233;-68
2023/06/12 18:54:29;;;;;;;3.33;1.63;;;23.90;99.90;;;;;;8284145;28;20190;-67
2023/06/12 18:58:30;;;;;;;4.67;1.70;;;23.00;99.90;;;;;;8251823;28;20219;-67
2023/06/12 19:02:31;;;;;;;2.67;1.50;;;22.10;99.90;;;;;;8264810;28;20222;-66
2023/06/12 19:06:33;;;;;;;9.70;2.40;;;21.10;99.90;;;;;;8283737;28;20199;-67
2023/06/12 19:10:34;;;;;;;4.70;2.07;;;20.30;99.90;;;;;;8254157;28;20194;-67
2023/06/12 19:14:35;;;;;;;2.80;1.87;;;19.50;99.90;;;;;;8266691;28;20244;-66
2023/06/12 19:18:36;;;;;;;1.97;1.57;;;18.80;99.90;;;;;;8253984;28;20261;-66
2023/06/12 19:22:37;;;;;;;5.60;1.93;;;18.30;99.90;;;;;;8247334;28;20219;-66
2023/06/12 19:26:38;;;;;;;2.53;1.70;;;17.90;99.90;;;;;;8266947;28;20179;-67
2023/06/12 19:30:39;;;;;;;3.13;2.10;;;17.50;99.90;;;;;;8261757;28;20197;-67
2023/06/12 19:34:41;;;;;;;4.83;2.00;;;17.10;99.90;;;;;;8280211;28;20234;-67
2023/06/12 19:38:42;;;;;;;3.17;1.80;;;16.70;99.90;;;;;;8254444;28;20278;-64
2023/06/12 19:42:43;;;;;;;2.73;1.73;;;16.40;99.90;;;;;;8253501;28;20263;-64
2023/06/12 19:46:44;;;;;;;2.60;2.00;;;16.10;99.90;;;;;;8264443;28;20187;-64
2023/06/12 19:50:46;;;;;;;3.77;1.93;;;15.90;99.90;;;;;;8279852;28;20199;-64
2023/06/12 19:54:47;;;;;;;8.53;2.17;;;15.60;99.90;;;;;;8265849;28;20189;-65
2023/06/12 19:58:48;;;;;;;2.93;2.10;;;15.30;99.90;;;;;;8254437;28;20279;-65
2023/06/12 20:02:48;;;;;;;4.60;1.90;;;15.10;99.90;;;;;;8284327;28;20203;-64
2023/06/12 20:06:51;;;;;;;3.80;1.80;;;14.80;99.90;;;;;;8263835;28;20210;-65
2023/06/12 20:10:51;;;;;;;2.83;1.97;;;14.60;99.90;;;;;;8282037;28;20187;-64
2023/06/12 20:14:53;;;;;;;2.70;1.70;;;14.40;1.00;;;;;;8265423;28;20259;-64
2023/06/12 20:18:54;;;;;;;2.20;1.73;;;14.20;1.00;;;;;;8248145;28;20192;-65
2023/06/12 20:22:59;;;;;;;3.00;2.30;;;14.00;1.00;;;;;;8266163;28;20196;-65
2023/06/12 20:27:00;;;;;;;3.50;2.03;;;13.70;1.00;;;;;;8267269;28;20207;-66
2023/06/12 20:31:01;;;;;;;5.33;2.53;;;13.50;1.00;;;;;;8254609;28;20190;-65
2023/06/12 20:35:02;;;;;;;6.13;2.57;;;13.40;1.00;;;;;;8252000;28;20197;-65
2023/06/12 20:39:07;;;;;;;3.67;2.07;;;13.20;1.00;;;;;;8249889;28;20190;-65
2023/06/12 20:43:09;;;;;;;5.00;2.67;;;13.10;1.00;;;;;;8254440;28;20184;-65
2023/06/12 20:47:12;;;;;;;3.40;2.30;;;12.90;1.00;;;;;;8253266;28;20223;-66
2023/06/12 20:51:13;;;;;;;2.60;2.33;;;12.60;1.00;;;;;;8258519;28;20192;-66
2023/06/12 20:55:17;;;;;;;2.97;2.40;;;12.40;1.00;;;;;;8272501;28;20226;-66
2023/06/12 20:59:18;;;;;;;3.53;2.27;;;12.10;1.00;;;;;;8271255;28;20275;-66
2023/06/12 21:03:19;;;;;;;4.67;2.70;;;12.00;1.00;;;;;;8257763;28;20211;-66
2023/06/12 21:07:21;;;;;;;2.83;2.20;;;11.90;1.00;;;;;;8260855;28;20286;-65